sensor_id;sensor_type;location;lat;lon;timestamp;P1;durP1;ratioP1;P2;durP2;ratioP2
8044;SDS011;4065;48.754;9.982;2022-12-18T00:01:31;98.05;;;46.95;;
8044;SDS011;4065;48.754;9.982;2022-12-18T00:04:34;102.95;;;46.90;;
8044;SDS011;4065;48.754;9.982;2022-12-18T00:07:36;105.72;;;45.45;;
8044;SDS011;4065;48.754;9.982;2022-12-18T00:10:37;104.80;;;43.30;;
8044;SDS011;4065;48.754;9.982;2022-12-18T00:13:39;98.88;;;44.50;;
8044;SDS011;4065;48.754;9.982;2022-12-18T00:16:42;79.88;;;42.38;;
8044;SDS011;4065;48.754;9.982;2022-12-18T00:19:46;85.35;;;41.60;;
8044;SDS011;4065;48.754;9.982;2022-12-18T00:22:47;88.47;;;41.65;;
8044;SDS011;4065;48.754;9.982;2022-12-18T00:25:49;97.53;;;44.10;;
8044;SDS011;4065;48.754;9.982;2022-12-18T00:28:51;96.65;;;44.97;;
8044;SDS011;4065;48.754;9.982;2022-12-18T00:31:53;84.78;;;40.78;;
8044;SDS011;4065;48.754;9.982;2022-12-18T00:34:55;90.97;;;43.97;;
8044;SDS011;4065;48.754;9.982;2022-12-18T00:37:57;99.03;;;43.65;;
8044;SDS011;4065;48.754;9.982;2022-12-18T00:40:59;87.88;;;41.90;;
8044;SDS011;4065;48.754;9.982;2022-12-18T00:44:00;82.90;;;41.33;;
8044;SDS011;4065;48.754;9.982;2022-12-18T00:47:01;93.30;;;43.03;;
8044;SDS011;4065;48.754;9.982;2022-12-18T00:50:05;85.90;;;42.17;;
8044;SDS011;4065;48.754;9.982;2022-12-18T00:53:07;86.80;;;42.15;;
8044;SDS011;4065;48.754;9.982;2022-12-18T00:56:08;95.88;;;42.95;;
8044;SDS011;4065;48.754;9.982;2022-12-18T00:59:10;76.15;;;39.38;;
8044;SDS011;4065;48.754;9.982;2022-12-18T01:02:12;87.60;;;42.75;;
8044;SDS011;4065;48.754;9.982;2022-12-18T01:05:15;92.55;;;44.03;;
8044;SDS011;4065;48.754;9.982;2022-12-18T01:08:17;86.20;;;42.22;;
8044;SDS011;4065;48.754;9.982;2022-12-18T01:11:19;83.07;;;42.38;;
8044;SDS011;4065;48.754;9.982;2022-12-18T01:14:21;74.40;;;39.45;;
8044;SDS011;4065;48.754;9.982;2022-12-18T01:17:22;80.45;;;40.15;;
8044;SDS011;4065;48.754;9.982;2022-12-18T01:20:25;80.97;;;37.40;;
8044;SDS011;4065;48.754;9.982;2022-12-18T01:23:27;80.55;;;36.35;;
8044;SDS011;4065;48.754;9.982;2022-12-18T01:26:28;77.25;;;37.92;;
8044;SDS011;4065;48.754;9.982;2022-12-18T01:29:30;84.28;;;38.55;;
8044;SDS011;4065;48.754;9.982;2022-12-18T01:32:32;94.40;;;41.67;;
8044;SDS011;4065;48.754;9.982;2022-12-18T01:35:39;83.70;;;38.30;;
8044;SDS011;4065;48.754;9.982;2022-12-18T01:38:41;63.38;;;33.13;;
8044;SDS011;4065;48.754;9.982;2022-12-18T01:41:42;87.93;;;40.10;;
8044;SDS011;4065;48.754;9.982;2022-12-18T01:45:08;82.47;;;39.50;;
8044;SDS011;4065;48.754;9.982;2022-12-18T01:48:25;89.80;;;40.10;;
8044;SDS011;4065;48.754;9.982;2022-12-18T01:51:27;81.60;;;37.45;;
8044;SDS011;4065;48.754;9.982;2022-12-18T01:54:30;82.60;;;37.25;;
8044;SDS011;4065;48.754;9.982;2022-12-18T01:57:33;78.07;;;37.65;;
8044;SDS011;4065;48.754;9.982;2022-12-18T02:00:35;82.47;;;39.40;;
8044;SDS011;4065;48.754;9.982;2022-12-18T02:03:36;76.72;;;38.13;;
8044;SDS011;4065;48.754;9.982;2022-12-18T02:06:39;74.60;;;37.38;;
8044;SDS011;4065;48.754;9.982;2022-12-18T02:09:44;75.13;;;37.17;;
8044;SDS011;4065;48.754;9.982;2022-12-18T02:12:49;87.82;;;40.83;;
8044;SDS011;4065;48.754;9.982;2022-12-18T02:15:55;77.97;;;39.45;;
8044;SDS011;4065;48.754;9.982;2022-12-18T02:19:03;62.05;;;32.08;;
8044;SDS011;4065;48.754;9.982;2022-12-18T02:22:13;84.53;;;40.47;;
8044;SDS011;4065;48.754;9.982;2022-12-18T02:25:25;84.75;;;38.55;;
8044;SDS011;4065;48.754;9.982;2022-12-18T02:28:40;84.50;;;40.92;;
8044;SDS011;4065;48.754;9.982;2022-12-18T02:31:44;81.68;;;39.35;;
8044;SDS011;4065;48.754;9.982;2022-12-18T02:34:48;58.63;;;31.85;;
8044;SDS011;4065;48.754;9.982;2022-12-18T02:37:51;85.90;;;39.83;;
8044;SDS011;4065;48.754;9.982;2022-12-18T02:40:54;71.80;;;36.03;;
8044;SDS011;4065;48.754;9.982;2022-12-18T02:43:58;80.10;;;38.90;;
8044;SDS011;4065;48.754;9.982;2022-12-18T02:47:01;74.32;;;37.17;;
8044;SDS011;4065;48.754;9.982;2022-12-18T02:50:05;72.63;;;37.47;;
8044;SDS011;4065;48.754;9.982;2022-12-18T02:53:13;75.25;;;39.20;;
8044;SDS011;4065;48.754;9.982;2022-12-18T02:56:19;82.95;;;40.35;;
8044;SDS011;4065;48.754;9.982;2022-12-18T02:59:25;76.50;;;37.95;;
8044;SDS011;4065;48.754;9.982;2022-12-18T03:02:33;79.13;;;38.83;;
8044;SDS011;4065;48.754;9.982;2022-12-18T03:05:38;83.00;;;35.38;;
8044;SDS011;4065;48.754;9.982;2022-12-18T03:08:43;75.05;;;36.58;;
8044;SDS011;4065;48.754;9.982;2022-12-18T03:11:52;75.05;;;36.45;;
8044;SDS011;4065;48.754;9.982;2022-12-18T03:15:16;64.15;;;33.10;;
8044;SDS011;4065;48.754;9.982;2022-12-18T03:18:21;71.32;;;32.58;;
8044;SDS011;4065;48.754;9.982;2022-12-18T03:21:26;77.80;;;35.25;;
8044;SDS011;4065;48.754;9.982;2022-12-18T03:24:29;67.97;;;33.78;;
8044;SDS011;4065;48.754;9.982;2022-12-18T03:27:32;69.47;;;30.13;;
8044;SDS011;4065;48.754;9.982;2022-12-18T03:30:36;72.40;;;32.25;;
8044;SDS011;4065;48.754;9.982;2022-12-18T03:33:40;85.28;;;32.55;;
8044;SDS011;4065;48.754;9.982;2022-12-18T03:36:43;77.05;;;32.22;;
8044;SDS011;4065;48.754;9.982;2022-12-18T03:39:45;72.18;;;32.55;;
8044;SDS011;4065;48.754;9.982;2022-12-18T03:42:47;93.53;;;34.10;;
8044;SDS011;4065;48.754;9.982;2022-12-18T03:45:52;86.22;;;33.65;;
8044;SDS011;4065;48.754;9.982;2022-12-18T03:48:58;98.35;;;33.92;;
8044;SDS011;4065;48.754;9.982;2022-12-18T03:52:03;98.40;;;32.53;;
8044;SDS011;4065;48.754;9.982;2022-12-18T03:55:06;83.25;;;33.53;;
8044;SDS011;4065;48.754;9.982;2022-12-18T03:58:08;117.00;;;36.70;;
8044;SDS011;4065;48.754;9.982;2022-12-18T04:01:13;94.85;;;35.63;;
8044;SDS011;4065;48.754;9.982;2022-12-18T04:04:16;91.00;;;34.45;;
8044;SDS011;4065;48.754;9.982;2022-12-18T04:07:19;91.93;;;34.72;;
8044;SDS011;4065;48.754;9.982;2022-12-18T04:10:21;101.68;;;33.38;;
8044;SDS011;4065;48.754;9.982;2022-12-18T04:13:23;100.38;;;33.75;;
8044;SDS011;4065;48.754;9.982;2022-12-18T04:16:26;98.10;;;33.60;;
8044;SDS011;4065;48.754;9.982;2022-12-18T04:19:28;115.70;;;35.13;;
8044;SDS011;4065;48.754;9.982;2022-12-18T04:22:29;108.55;;;34.53;;
8044;SDS011;4065;48.754;9.982;2022-12-18T04:25:31;116.00;;;32.83;;
8044;SDS011;4065;48.754;9.982;2022-12-18T04:28:32;148.73;;;35.42;;
8044;SDS011;4065;48.754;9.982;2022-12-18T04:31:36;112.90;;;34.33;;
8044;SDS011;4065;48.754;9.982;2022-12-18T04:34:37;102.13;;;34.47;;
8044;SDS011;4065;48.754;9.982;2022-12-18T04:37:39;84.40;;;34.03;;
8044;SDS011;4065;48.754;9.982;2022-12-18T04:40:41;84.82;;;33.67;;
8044;SDS011;4065;48.754;9.982;2022-12-18T04:43:42;101.47;;;32.67;;
8044;SDS011;4065;48.754;9.982;2022-12-18T04:46:45;103.82;;;34.95;;
8044;SDS011;4065;48.754;9.982;2022-12-18T04:49:46;108.28;;;32.83;;
8044;SDS011;4065;48.754;9.982;2022-12-18T04:52:48;121.35;;;34.03;;
8044;SDS011;4065;48.754;9.982;2022-12-18T04:55:49;94.50;;;34.05;;
8044;SDS011;4065;48.754;9.982;2022-12-18T04:58:51;92.40;;;35.20;;
8044;SDS011;4065;48.754;9.982;2022-12-18T05:01:54;98.63;;;33.55;;
8044;SDS011;4065;48.754;9.982;2022-12-18T05:04:55;95.30;;;33.47;;
8044;SDS011;4065;48.754;9.982;2022-12-18T05:07:57;120.07;;;35.85;;
8044;SDS011;4065;48.754;9.982;2022-12-18T05:10:58;114.95;;;31.90;;
8044;SDS011;4065;48.754;9.982;2022-12-18T05:14:00;67.28;;;27.42;;
8044;SDS011;4065;48.754;9.982;2022-12-18T05:17:03;130.32;;;33.95;;
8044;SDS011;4065;48.754;9.982;2022-12-18T05:20:05;126.03;;;32.90;;
8044;SDS011;4065;48.754;9.982;2022-12-18T05:23:07;91.40;;;35.08;;
8044;SDS011;4065;48.754;9.982;2022-12-18T05:26:16;67.80;;;28.70;;
8044;SDS011;4065;48.754;9.982;2022-12-18T05:29:18;111.53;;;33.85;;
8044;SDS011;4065;48.754;9.982;2022-12-18T05:32:21;109.70;;;35.45;;
8044;SDS011;4065;48.754;9.982;2022-12-18T05:35:23;60.90;;;27.88;;
8044;SDS011;4065;48.754;9.982;2022-12-18T05:38:25;101.82;;;36.42;;
8044;SDS011;4065;48.754;9.982;2022-12-18T05:41:28;86.63;;;32.05;;
8044;SDS011;4065;48.754;9.982;2022-12-18T05:44:29;88.00;;;34.47;;
8044;SDS011;4065;48.754;9.982;2022-12-18T05:47:32;94.57;;;33.63;;
8044;SDS011;4065;48.754;9.982;2022-12-18T05:50:34;94.05;;;33.92;;
8044;SDS011;4065;48.754;9.982;2022-12-18T05:53:36;88.35;;;32.72;;
8044;SDS011;4065;48.754;9.982;2022-12-18T05:56:38;94.28;;;33.35;;
8044;SDS011;4065;48.754;9.982;2022-12-18T05:59:39;93.90;;;31.55;;
8044;SDS011;4065;48.754;9.982;2022-12-18T06:02:42;94.28;;;33.25;;
8044;SDS011;4065;48.754;9.982;2022-12-18T06:05:47;80.20;;;30.63;;
8044;SDS011;4065;48.754;9.982;2022-12-18T06:08:49;79.75;;;30.02;;
8044;SDS011;4065;48.754;9.982;2022-12-18T06:11:51;91.15;;;31.27;;
8044;SDS011;4065;48.754;9.982;2022-12-18T06:14:53;76.35;;;28.30;;
8044;SDS011;4065;48.754;9.982;2022-12-18T06:17:56;71.75;;;30.00;;
8044;SDS011;4065;48.754;9.982;2022-12-18T06:20:57;75.65;;;30.55;;
8044;SDS011;4065;48.754;9.982;2022-12-18T06:23:59;85.03;;;29.20;;
8044;SDS011;4065;48.754;9.982;2022-12-18T06:27:01;116.63;;;36.72;;
8044;SDS011;4065;48.754;9.982;2022-12-18T06:30:03;98.45;;;33.70;;
8044;SDS011;4065;48.754;9.982;2022-12-18T06:33:07;89.30;;;32.88;;
8044;SDS011;4065;48.754;9.982;2022-12-18T06:36:09;97.47;;;32.03;;
8044;SDS011;4065;48.754;9.982;2022-12-18T06:39:12;82.72;;;33.53;;
8044;SDS011;4065;48.754;9.982;2022-12-18T06:42:13;104.32;;;35.83;;
8044;SDS011;4065;48.754;9.982;2022-12-18T06:45:15;87.50;;;32.58;;
8044;SDS011;4065;48.754;9.982;2022-12-18T06:48:18;88.28;;;31.35;;
8044;SDS011;4065;48.754;9.982;2022-12-18T06:51:20;77.45;;;33.28;;
8044;SDS011;4065;48.754;9.982;2022-12-18T06:54:23;78.35;;;30.50;;
8044;SDS011;4065;48.754;9.982;2022-12-18T06:57:25;82.57;;;31.63;;
8044;SDS011;4065;48.754;9.982;2022-12-18T07:00:26;87.55;;;32.95;;
8044;SDS011;4065;48.754;9.982;2022-12-18T07:03:29;88.68;;;32.45;;
8044;SDS011;4065;48.754;9.982;2022-12-18T07:06:31;83.72;;;32.90;;
8044;SDS011;4065;48.754;9.982;2022-12-18T07:09:32;84.60;;;33.97;;
8044;SDS011;4065;48.754;9.982;2022-12-18T07:12:34;83.57;;;34.08;;
8044;SDS011;4065;48.754;9.982;2022-12-18T07:15:36;78.47;;;32.63;;
8044;SDS011;4065;48.754;9.982;2022-12-18T07:18:39;83.90;;;33.60;;
8044;SDS011;4065;48.754;9.982;2022-12-18T07:21:41;87.30;;;34.78;;
8044;SDS011;4065;48.754;9.982;2022-12-18T07:24:42;79.85;;;33.70;;
8044;SDS011;4065;48.754;9.982;2022-12-18T07:27:44;87.95;;;33.47;;
8044;SDS011;4065;48.754;9.982;2022-12-18T07:30:45;87.68;;;33.63;;
8044;SDS011;4065;48.754;9.982;2022-12-18T07:33:49;91.82;;;34.70;;
8044;SDS011;4065;48.754;9.982;2022-12-18T07:36:51;74.43;;;31.17;;
8044;SDS011;4065;48.754;9.982;2022-12-18T07:39:52;76.07;;;31.00;;
8044;SDS011;4065;48.754;9.982;2022-12-18T07:42:54;83.10;;;32.25;;
8044;SDS011;4065;48.754;9.982;2022-12-18T07:45:55;87.32;;;33.95;;
8044;SDS011;4065;48.754;9.982;2022-12-18T07:48:58;71.47;;;29.73;;
8044;SDS011;4065;48.754;9.982;2022-12-18T07:51:59;74.95;;;31.60;;
8044;SDS011;4065;48.754;9.982;2022-12-18T07:55:01;68.68;;;31.02;;
8044;SDS011;4065;48.754;9.982;2022-12-18T07:58:03;80.85;;;36.38;;
8044;SDS011;4065;48.754;9.982;2022-12-18T08:01:05;80.15;;;37.45;;
8044;SDS011;4065;48.754;9.982;2022-12-18T08:04:09;90.60;;;40.65;;
8044;SDS011;4065;48.754;9.982;2022-12-18T08:07:11;84.68;;;35.83;;
8044;SDS011;4065;48.754;9.982;2022-12-18T08:10:13;69.05;;;30.85;;
8044;SDS011;4065;48.754;9.982;2022-12-18T08:13:14;68.72;;;32.80;;
8044;SDS011;4065;48.754;9.982;2022-12-18T08:16:16;72.72;;;32.22;;
8044;SDS011;4065;48.754;9.982;2022-12-18T08:19:19;64.97;;;29.67;;
8044;SDS011;4065;48.754;9.982;2022-12-18T08:22:21;68.68;;;28.58;;
8044;SDS011;4065;48.754;9.982;2022-12-18T08:25:22;71.43;;;34.42;;
8044;SDS011;4065;48.754;9.982;2022-12-18T08:28:24;76.65;;;33.30;;
8044;SDS011;4065;48.754;9.982;2022-12-18T08:31:26;70.97;;;32.20;;
8044;SDS011;4065;48.754;9.982;2022-12-18T08:34:30;77.15;;;30.42;;
8044;SDS011;4065;48.754;9.982;2022-12-18T08:37:32;72.88;;;31.83;;
8044;SDS011;4065;48.754;9.982;2022-12-18T08:40:33;74.60;;;31.92;;
8044;SDS011;4065;48.754;9.982;2022-12-18T08:43:35;67.70;;;29.85;;
8044;SDS011;4065;48.754;9.982;2022-12-18T08:46:54;67.78;;;31.15;;
8044;SDS011;4065;48.754;9.982;2022-12-18T08:49:56;72.90;;;30.88;;
8044;SDS011;4065;48.754;9.982;2022-12-18T08:52:58;67.95;;;30.58;;
8044;SDS011;4065;48.754;9.982;2022-12-18T08:56:00;67.35;;;30.38;;
8044;SDS011;4065;48.754;9.982;2022-12-18T08:59:01;69.70;;;30.85;;
8044;SDS011;4065;48.754;9.982;2022-12-18T09:02:04;75.68;;;34.25;;
8044;SDS011;4065;48.754;9.982;2022-12-18T09:05:09;62.17;;;30.23;;
8044;SDS011;4065;48.754;9.982;2022-12-18T09:08:11;63.53;;;28.45;;
8044;SDS011;4065;48.754;9.982;2022-12-18T09:11:14;68.18;;;36.15;;
8044;SDS011;4065;48.754;9.982;2022-12-18T09:14:16;61.35;;;27.65;;
8044;SDS011;4065;48.754;9.982;2022-12-18T09:17:18;67.90;;;29.60;;
8044;SDS011;4065;48.754;9.982;2022-12-18T09:20:21;60.20;;;28.98;;
8044;SDS011;4065;48.754;9.982;2022-12-18T09:23:23;59.88;;;28.05;;
8044;SDS011;4065;48.754;9.982;2022-12-18T09:26:25;61.38;;;29.48;;
8044;SDS011;4065;48.754;9.982;2022-12-18T09:29:27;55.83;;;28.08;;
8044;SDS011;4065;48.754;9.982;2022-12-18T09:32:28;65.50;;;30.00;;
8044;SDS011;4065;48.754;9.982;2022-12-18T09:35:31;60.55;;;28.80;;
8044;SDS011;4065;48.754;9.982;2022-12-18T09:38:33;58.80;;;27.33;;
8044;SDS011;4065;48.754;9.982;2022-12-18T09:41:45;62.83;;;27.63;;
8044;SDS011;4065;48.754;9.982;2022-12-18T09:44:50;63.08;;;27.48;;
8044;SDS011;4065;48.754;9.982;2022-12-18T09:47:52;58.03;;;28.80;;
8044;SDS011;4065;48.754;9.982;2022-12-18T09:50:57;60.70;;;29.05;;
8044;SDS011;4065;48.754;9.982;2022-12-18T09:54:01;55.85;;;26.67;;
8044;SDS011;4065;48.754;9.982;2022-12-18T09:57:05;50.55;;;25.67;;
8044;SDS011;4065;48.754;9.982;2022-12-18T10:00:10;63.17;;;28.42;;
8044;SDS011;4065;48.754;9.982;2022-12-18T10:03:19;53.95;;;29.17;;
8044;SDS011;4065;48.754;9.982;2022-12-18T10:06:24;56.38;;;27.98;;
8044;SDS011;4065;48.754;9.982;2022-12-18T10:09:29;59.35;;;28.40;;
8044;SDS011;4065;48.754;9.982;2022-12-18T10:12:36;57.67;;;28.60;;
8044;SDS011;4065;48.754;9.982;2022-12-18T10:15:45;60.75;;;28.65;;
8044;SDS011;4065;48.754;9.982;2022-12-18T10:18:58;69.13;;;32.00;;
8044;SDS011;4065;48.754;9.982;2022-12-18T10:22:07;56.17;;;26.42;;
8044;SDS011;4065;48.754;9.982;2022-12-18T10:25:20;54.95;;;26.38;;
8044;SDS011;4065;48.754;9.982;2022-12-18T10:28:23;60.00;;;28.98;;
8044;SDS011;4065;48.754;9.982;2022-12-18T10:31:25;61.15;;;28.23;;
8044;SDS011;4065;48.754;9.982;2022-12-18T10:34:27;63.30;;;29.92;;
8044;SDS011;4065;48.754;9.982;2022-12-18T10:37:33;55.10;;;27.50;;
8044;SDS011;4065;48.754;9.982;2022-12-18T10:40:47;61.40;;;27.25;;
8044;SDS011;4065;48.754;9.982;2022-12-18T10:43:51;59.10;;;27.73;;
8044;SDS011;4065;48.754;9.982;2022-12-18T10:47:12;57.22;;;29.08;;
8044;SDS011;4065;48.754;9.982;2022-12-18T10:50:19;57.30;;;26.95;;
8044;SDS011;4065;48.754;9.982;2022-12-18T10:53:33;55.90;;;24.77;;
8044;SDS011;4065;48.754;9.982;2022-12-18T10:56:35;56.47;;;26.48;;
8044;SDS011;4065;48.754;9.982;2022-12-18T10:59:49;52.17;;;26.38;;
8044;SDS011;4065;48.754;9.982;2022-12-18T11:02:52;61.33;;;29.60;;
8044;SDS011;4065;48.754;9.982;2022-12-18T11:06:00;55.25;;;25.77;;
8044;SDS011;4065;48.754;9.982;2022-12-18T11:09:05;53.22;;;25.40;;
8044;SDS011;4065;48.754;9.982;2022-12-18T11:12:14;55.70;;;26.98;;
8044;SDS011;4065;48.754;9.982;2022-12-18T11:15:18;54.35;;;27.13;;
8044;SDS011;4065;48.754;9.982;2022-12-18T11:18:22;55.83;;;27.73;;
8044;SDS011;4065;48.754;9.982;2022-12-18T11:21:27;60.53;;;28.10;;
8044;SDS011;4065;48.754;9.982;2022-12-18T11:24:31;59.03;;;28.23;;
8044;SDS011;4065;48.754;9.982;2022-12-18T11:27:35;65.68;;;30.70;;
8044;SDS011;4065;48.754;9.982;2022-12-18T11:30:36;60.78;;;28.55;;
8044;SDS011;4065;48.754;9.982;2022-12-18T11:33:39;63.00;;;27.42;;
8044;SDS011;4065;48.754;9.982;2022-12-18T11:36:44;56.40;;;28.38;;
8044;SDS011;4065;48.754;9.982;2022-12-18T11:39:59;58.28;;;27.92;;
8044;SDS011;4065;48.754;9.982;2022-12-18T11:43:06;61.45;;;27.35;;
8044;SDS011;4065;48.754;9.982;2022-12-18T11:46:12;66.55;;;30.73;;
8044;SDS011;4065;48.754;9.982;2022-12-18T11:49:17;59.13;;;27.58;;
8044;SDS011;4065;48.754;9.982;2022-12-18T11:52:22;58.90;;;28.52;;
8044;SDS011;4065;48.754;9.982;2022-12-18T11:55:30;66.43;;;29.65;;
8044;SDS011;4065;48.754;9.982;2022-12-18T11:58:43;59.20;;;26.75;;
8044;SDS011;4065;48.754;9.982;2022-12-18T12:01:51;56.78;;;26.88;;
8044;SDS011;4065;48.754;9.982;2022-12-18T12:08:29;63.40;;;29.42;;
8044;SDS011;4065;48.754;9.982;2022-12-18T12:11:45;60.10;;;30.13;;
8044;SDS011;4065;48.754;9.982;2022-12-18T12:14:55;70.10;;;31.45;;
8044;SDS011;4065;48.754;9.982;2022-12-18T12:18:05;62.65;;;29.13;;
8044;SDS011;4065;48.754;9.982;2022-12-18T12:21:16;64.97;;;30.08;;
8044;SDS011;4065;48.754;9.982;2022-12-18T12:24:26;61.08;;;27.50;;
8044;SDS011;4065;48.754;9.982;2022-12-18T12:27:41;57.22;;;28.65;;
8044;SDS011;4065;48.754;9.982;2022-12-18T12:30:48;72.40;;;29.38;;
8044;SDS011;4065;48.754;9.982;2022-12-18T12:33:57;65.78;;;29.80;;
8044;SDS011;4065;48.754;9.982;2022-12-18T12:37:06;61.25;;;30.30;;
8044;SDS011;4065;48.754;9.982;2022-12-18T12:40:17;65.60;;;31.52;;
8044;SDS011;4065;48.754;9.982;2022-12-18T12:43:22;59.92;;;30.95;;
8044;SDS011;4065;48.754;9.982;2022-12-18T12:46:27;60.75;;;28.92;;
8044;SDS011;4065;48.754;9.982;2022-12-18T12:49:32;58.83;;;29.35;;
8044;SDS011;4065;48.754;9.982;2022-12-18T12:52:35;60.72;;;30.35;;
8044;SDS011;4065;48.754;9.982;2022-12-18T12:55:40;60.80;;;28.98;;
8044;SDS011;4065;48.754;9.982;2022-12-18T12:58:49;60.55;;;27.00;;
8044;SDS011;4065;48.754;9.982;2022-12-18T13:01:57;62.88;;;30.00;;
8044;SDS011;4065;48.754;9.982;2022-12-18T13:05:03;67.60;;;32.85;;
8044;SDS011;4065;48.754;9.982;2022-12-18T13:08:11;72.07;;;34.40;;
8044;SDS011;4065;48.754;9.982;2022-12-18T13:11:30;68.45;;;33.47;;
8044;SDS011;4065;48.754;9.982;2022-12-18T13:14:52;67.72;;;31.10;;
8044;SDS011;4065;48.754;9.982;2022-12-18T13:18:04;63.60;;;29.73;;
8044;SDS011;4065;48.754;9.982;2022-12-18T13:21:12;68.55;;;32.78;;
8044;SDS011;4065;48.754;9.982;2022-12-18T13:24:25;62.00;;;30.40;;
8044;SDS011;4065;48.754;9.982;2022-12-18T13:27:52;56.22;;;28.80;;
8044;SDS011;4065;48.754;9.982;2022-12-18T13:31:00;57.65;;;28.33;;
8044;SDS011;4065;48.754;9.982;2022-12-18T13:34:09;58.47;;;28.05;;
8044;SDS011;4065;48.754;9.982;2022-12-18T13:37:37;61.90;;;30.65;;
8044;SDS011;4065;48.754;9.982;2022-12-18T13:44:10;64.32;;;28.80;;
8044;SDS011;4065;48.754;9.982;2022-12-18T13:47:24;60.17;;;28.58;;
8044;SDS011;4065;48.754;9.982;2022-12-18T13:50:27;65.72;;;30.70;;
8044;SDS011;4065;48.754;9.982;2022-12-18T13:53:30;64.43;;;31.67;;
8044;SDS011;4065;48.754;9.982;2022-12-18T13:56:42;59.08;;;28.70;;
8044;SDS011;4065;48.754;9.982;2022-12-18T13:59:44;62.45;;;32.25;;
8044;SDS011;4065;48.754;9.982;2022-12-18T14:02:48;60.30;;;28.55;;
8044;SDS011;4065;48.754;9.982;2022-12-18T14:05:58;61.08;;;27.90;;
8044;SDS011;4065;48.754;9.982;2022-12-18T14:09:01;55.70;;;27.60;;
8044;SDS011;4065;48.754;9.982;2022-12-18T14:12:03;68.65;;;30.30;;
8044;SDS011;4065;48.754;9.982;2022-12-18T14:15:25;70.63;;;31.67;;
8044;SDS011;4065;48.754;9.982;2022-12-18T14:18:33;68.35;;;31.23;;
8044;SDS011;4065;48.754;9.982;2022-12-18T14:21:39;58.95;;;27.80;;
8044;SDS011;4065;48.754;9.982;2022-12-18T14:24:41;66.93;;;31.10;;
8044;SDS011;4065;48.754;9.982;2022-12-18T14:27:43;64.45;;;29.98;;
8044;SDS011;4065;48.754;9.982;2022-12-18T14:30:46;66.47;;;30.85;;
8044;SDS011;4065;48.754;9.982;2022-12-18T14:33:49;74.07;;;29.45;;
8044;SDS011;4065;48.754;9.982;2022-12-18T14:36:51;64.50;;;29.75;;
8044;SDS011;4065;48.754;9.982;2022-12-18T14:39:54;66.75;;;30.70;;
8044;SDS011;4065;48.754;9.982;2022-12-18T14:42:57;64.07;;;27.42;;
8044;SDS011;4065;48.754;9.982;2022-12-18T14:45:59;64.68;;;30.45;;
8044;SDS011;4065;48.754;9.982;2022-12-18T14:49:03;70.28;;;31.58;;
8044;SDS011;4065;48.754;9.982;2022-12-18T14:52:06;60.03;;;29.30;;
8044;SDS011;4065;48.754;9.982;2022-12-18T14:55:20;64.03;;;29.95;;
8044;SDS011;4065;48.754;9.982;2022-12-18T14:58:22;60.70;;;26.92;;
8044;SDS011;4065;48.754;9.982;2022-12-18T15:01:25;59.63;;;28.60;;
8044;SDS011;4065;48.754;9.982;2022-12-18T15:04:31;53.33;;;28.77;;
8044;SDS011;4065;48.754;9.982;2022-12-18T15:07:39;65.45;;;29.85;;
8044;SDS011;4065;48.754;9.982;2022-12-18T15:10:46;55.38;;;27.45;;
8044;SDS011;4065;48.754;9.982;2022-12-18T15:13:49;56.33;;;28.25;;
8044;SDS011;4065;48.754;9.982;2022-12-18T15:16:51;59.80;;;27.70;;
8044;SDS011;4065;48.754;9.982;2022-12-18T15:20:00;64.13;;;29.52;;
8044;SDS011;4065;48.754;9.982;2022-12-18T15:23:03;63.45;;;29.38;;
8044;SDS011;4065;48.754;9.982;2022-12-18T15:26:05;62.00;;;26.55;;
8044;SDS011;4065;48.754;9.982;2022-12-18T15:29:15;59.13;;;27.30;;
8044;SDS011;4065;48.754;9.982;2022-12-18T15:32:20;62.70;;;28.45;;
8044;SDS011;4065;48.754;9.982;2022-12-18T15:35:23;63.08;;;27.85;;
8044;SDS011;4065;48.754;9.982;2022-12-18T15:38:27;62.25;;;29.08;;
8044;SDS011;4065;48.754;9.982;2022-12-18T15:41:30;62.53;;;28.98;;
8044;SDS011;4065;48.754;9.982;2022-12-18T15:44:32;57.17;;;30.13;;
8044;SDS011;4065;48.754;9.982;2022-12-18T15:47:32;59.85;;;27.15;;
8044;SDS011;4065;48.754;9.982;2022-12-18T15:50:35;58.90;;;28.30;;
8044;SDS011;4065;48.754;9.982;2022-12-18T15:53:37;62.58;;;27.45;;
8044;SDS011;4065;48.754;9.982;2022-12-18T15:56:39;53.00;;;25.42;;
8044;SDS011;4065;48.754;9.982;2022-12-18T15:59:58;59.60;;;27.90;;
8044;SDS011;4065;48.754;9.982;2022-12-18T16:03:00;57.22;;;27.85;;
8044;SDS011;4065;48.754;9.982;2022-12-18T16:06:03;58.33;;;28.25;;
8044;SDS011;4065;48.754;9.982;2022-12-18T16:09:04;58.90;;;28.52;;
8044;SDS011;4065;48.754;9.982;2022-12-18T16:12:06;60.97;;;27.70;;
8044;SDS011;4065;48.754;9.982;2022-12-18T16:15:10;64.18;;;29.00;;
8044;SDS011;4065;48.754;9.982;2022-12-18T16:18:13;71.00;;;30.52;;
8044;SDS011;4065;48.754;9.982;2022-12-18T16:21:16;62.42;;;30.88;;
8044;SDS011;4065;48.754;9.982;2022-12-18T16:24:18;61.58;;;27.75;;
8044;SDS011;4065;48.754;9.982;2022-12-18T16:27:22;60.70;;;28.50;;
8044;SDS011;4065;48.754;9.982;2022-12-18T16:30:25;61.50;;;27.25;;
8044;SDS011;4065;48.754;9.982;2022-12-18T16:33:28;59.70;;;29.13;;
8044;SDS011;4065;48.754;9.982;2022-12-18T16:36:30;65.53;;;29.38;;
8044;SDS011;4065;48.754;9.982;2022-12-18T16:39:32;67.28;;;28.83;;
8044;SDS011;4065;48.754;9.982;2022-12-18T16:42:34;62.05;;;28.80;;
8044;SDS011;4065;48.754;9.982;2022-12-18T16:45:36;64.60;;;28.60;;
8044;SDS011;4065;48.754;9.982;2022-12-18T16:48:37;60.10;;;27.17;;
8044;SDS011;4065;48.754;9.982;2022-12-18T16:51:40;62.58;;;28.05;;
8044;SDS011;4065;48.754;9.982;2022-12-18T16:54:42;58.88;;;29.45;;
8044;SDS011;4065;48.754;9.982;2022-12-18T16:57:43;57.30;;;26.60;;
8044;SDS011;4065;48.754;9.982;2022-12-18T17:00:45;58.55;;;28.67;;
8044;SDS011;4065;48.754;9.982;2022-12-18T17:03:50;61.05;;;27.08;;
8044;SDS011;4065;48.754;9.982;2022-12-18T17:06:55;56.88;;;24.95;;
8044;SDS011;4065;48.754;9.982;2022-12-18T17:09:56;63.80;;;28.77;;
8044;SDS011;4065;48.754;9.982;2022-12-18T17:12:58;58.05;;;30.25;;
8044;SDS011;4065;48.754;9.982;2022-12-18T17:16:03;62.38;;;29.00;;
8044;SDS011;4065;48.754;9.982;2022-12-18T17:19:05;75.55;;;36.35;;
8044;SDS011;4065;48.754;9.982;2022-12-18T17:22:08;55.53;;;27.52;;
8044;SDS011;4065;48.754;9.982;2022-12-18T17:25:10;60.35;;;28.73;;
8044;SDS011;4065;48.754;9.982;2022-12-18T17:28:11;55.63;;;28.85;;
8044;SDS011;4065;48.754;9.982;2022-12-18T17:31:15;68.57;;;30.80;;
8044;SDS011;4065;48.754;9.982;2022-12-18T17:34:18;64.13;;;29.60;;
8044;SDS011;4065;48.754;9.982;2022-12-18T17:37:22;62.08;;;29.63;;
8044;SDS011;4065;48.754;9.982;2022-12-18T17:40:24;55.65;;;28.00;;
8044;SDS011;4065;48.754;9.982;2022-12-18T17:43:26;52.38;;;26.75;;
8044;SDS011;4065;48.754;9.982;2022-12-18T17:46:28;63.33;;;30.38;;
8044;SDS011;4065;48.754;9.982;2022-12-18T17:49:30;56.92;;;28.10;;
8044;SDS011;4065;48.754;9.982;2022-12-18T17:52:33;56.72;;;26.13;;
8044;SDS011;4065;48.754;9.982;2022-12-18T17:55:35;56.63;;;26.23;;
8044;SDS011;4065;48.754;9.982;2022-12-18T17:58:37;56.85;;;26.77;;
8044;SDS011;4065;48.754;9.982;2022-12-18T18:01:39;56.78;;;26.20;;
8044;SDS011;4065;48.754;9.982;2022-12-18T18:04:40;58.38;;;27.42;;
8044;SDS011;4065;48.754;9.982;2022-12-18T18:07:43;59.30;;;26.02;;
8044;SDS011;4065;48.754;9.982;2022-12-18T18:10:45;50.33;;;22.95;;
8044;SDS011;4065;48.754;9.982;2022-12-18T18:13:48;56.78;;;24.95;;
8044;SDS011;4065;48.754;9.982;2022-12-18T18:17:06;54.22;;;26.80;;
8044;SDS011;4065;48.754;9.982;2022-12-18T18:20:08;52.65;;;25.63;;
8044;SDS011;4065;48.754;9.982;2022-12-18T18:23:12;55.40;;;26.50;;
8044;SDS011;4065;48.754;9.982;2022-12-18T18:26:13;55.35;;;25.75;;
8044;SDS011;4065;48.754;9.982;2022-12-18T18:29:16;51.13;;;24.42;;
8044;SDS011;4065;48.754;9.982;2022-12-18T18:32:18;52.53;;;26.02;;
8044;SDS011;4065;48.754;9.982;2022-12-18T18:35:19;56.05;;;27.15;;
8044;SDS011;4065;48.754;9.982;2022-12-18T18:38:22;54.05;;;25.75;;